sensor_id;sensor_type;location;lat;lon;timestamp;P1;durP1;ratioP1;P2;durP2;ratioP2
52392;SDS011;38320;39.764;2.710;2024-02-28T07:49:01;1.85;;;1.40;;
52392;SDS011;38320;39.764;2.710;2024-02-28T07:51:27;2.45;;;1.35;;
52392;SDS011;38320;39.764;2.710;2024-02-28T07:53:53;1.65;;;1.25;;
52392;SDS011;38320;39.764;2.710;2024-02-28T07:56:19;2.80;;;1.20;;
52392;SDS011;38320;39.764;2.710;2024-02-28T07:58:47;2.53;;;1.20;;
52392;SDS011;38320;39.764;2.710;2024-02-28T08:01:12;1.48;;;1.38;;
52392;SDS011;38320;39.764;2.710;2024-02-28T08:03:38;1.67;;;1.13;;
52392;SDS011;38320;39.764;2.710;2024-02-28T08:06:04;0.85;;;0.85;;
52392;SDS011;38320;39.764;2.710;2024-02-28T08:08:29;2.47;;;1.20;;
52392;SDS011;38320;39.764;2.710;2024-02-28T08:10:55;2.17;;;1.20;;
52392;SDS011;38320;39.764;2.710;2024-02-28T08:13:21;3.45;;;1.10;;
52392;SDS011;38320;39.764;2.710;2024-02-28T08:15:46;0.90;;;0.90;;
52392;SDS011;38320;39.764;2.710;2024-02-28T08:18:12;1.95;;;1.05;;
52392;SDS011;38320;39.764;2.710;2024-02-28T08:20:37;0.75;;;0.75;;
52392;SDS011;38320;39.764;2.710;2024-02-28T08:23:06;0.73;;;0.73;;
52392;SDS011;38320;39.764;2.710;2024-02-28T08:25:32;2.38;;;1.23;;
52392;SDS011;38320;39.764;2.710;2024-02-28T08:27:58;0.85;;;0.80;;
52392;SDS011;38320;39.764;2.710;2024-02-28T08:30:23;1.05;;;0.90;;
52392;SDS011;38320;39.764;2.710;2024-02-28T08:32:49;0.90;;;0.90;;
52392;SDS011;38320;39.764;2.710;2024-02-28T08:35:16;1.63;;;1.00;;
52392;SDS011;38320;39.764;2.710;2024-02-28T08:37:45;0.90;;;0.90;;
52392;SDS011;38320;39.764;2.710;2024-02-28T08:40:11;1.02;;;0.95;;
52392;SDS011;38320;39.764;2.710;2024-02-28T08:42:37;1.88;;;0.80;;
52392;SDS011;38320;39.764;2.710;2024-02-28T08:45:03;0.80;;;0.80;;
52392;SDS011;38320;39.764;2.710;2024-02-28T08:47:30;1.70;;;0.73;;
52392;SDS011;38320;39.764;2.710;2024-02-28T08:49:56;1.35;;;0.70;;
52392;SDS011;38320;39.764;2.710;2024-02-28T08:52:21;1.25;;;0.90;;
52392;SDS011;38320;39.764;2.710;2024-02-28T08:54:47;0.70;;;0.70;;
52392;SDS011;38320;39.764;2.710;2024-02-28T08:57:14;0.57;;;0.52;;
52392;SDS011;38320;39.764;2.710;2024-02-28T08:59:39;0.70;;;0.70;;
52392;SDS011;38320;39.764;2.710;2024-02-28T09:02:05;1.02;;;0.80;;
52392;SDS011;38320;39.764;2.710;2024-02-28T09:04:31;0.73;;;0.73;;
52392;SDS011;38320;39.764;2.710;2024-02-28T09:06:57;2.00;;;0.63;;
52392;SDS011;38320;39.764;2.710;2024-02-28T09:09:22;0.93;;;0.85;;
52392;SDS011;38320;39.764;2.710;2024-02-28T09:11:48;2.55;;;0.60;;
52392;SDS011;38320;39.764;2.710;2024-02-28T09:14:13;1.23;;;0.73;;
52392;SDS011;38320;39.764;2.710;2024-02-28T09:16:39;0.88;;;0.75;;
52392;SDS011;38320;39.764;2.710;2024-02-28T09:19:04;1.73;;;0.70;;
52392;SDS011;38320;39.764;2.710;2024-02-28T09:21:30;0.93;;;0.52;;
52392;SDS011;38320;39.764;2.710;2024-02-28T09:23:56;0.55;;;0.55;;
52392;SDS011;38320;39.764;2.710;2024-02-28T09:26:22;1.40;;;0.70;;
52392;SDS011;38320;39.764;2.710;2024-02-28T09:28:48;1.75;;;0.47;;
52392;SDS011;38320;39.764;2.710;2024-02-28T09:31:13;1.95;;;0.50;;
52392;SDS011;38320;39.764;2.710;2024-02-28T09:33:40;0.73;;;0.60;;
52392;SDS011;38320;39.764;2.710;2024-02-28T09:36:06;1.75;;;0.65;;
52392;SDS011;38320;39.764;2.710;2024-02-28T09:38:32;0.57;;;0.50;;
52392;SDS011;38320;39.764;2.710;2024-02-28T09:40:59;0.68;;;0.60;;
52392;SDS011;38320;39.764;2.710;2024-02-28T09:43:29;2.33;;;0.60;;
52392;SDS011;38320;39.764;2.710;2024-02-28T09:45:57;0.77;;;0.70;;
52392;SDS011;38320;39.764;2.710;2024-02-28T09:48:26;0.50;;;0.43;;
52392;SDS011;38320;39.764;2.710;2024-02-28T09:50:58;1.15;;;0.40;;
52392;SDS011;38320;39.764;2.710;2024-02-28T09:53:25;0.50;;;0.50;;
52392;SDS011;38320;39.764;2.710;2024-02-28T09:55:51;2.05;;;0.50;;
52392;SDS011;38320;39.764;2.710;2024-02-28T09:58:18;0.93;;;0.50;;
52392;SDS011;38320;39.764;2.710;2024-02-28T10:00:46;1.95;;;0.43;;
52392;SDS011;38320;39.764;2.710;2024-02-28T10:03:18;0.45;;;0.45;;
52392;SDS011;38320;39.764;2.710;2024-02-28T10:05:44;1.45;;;0.50;;
52392;SDS011;38320;39.764;2.710;2024-02-28T10:08:14;0.77;;;0.50;;
52392;SDS011;38320;39.764;2.710;2024-02-28T10:10:46;0.77;;;0.40;;
52392;SDS011;38320;39.764;2.710;2024-02-28T10:13:15;0.77;;;0.32;;
52392;SDS011;38320;39.764;2.710;2024-02-28T10:15:41;2.03;;;0.45;;
52392;SDS011;38320;39.764;2.710;2024-02-28T10:18:06;1.92;;;0.55;;
52392;SDS011;38320;39.764;2.710;2024-02-28T10:20:32;1.02;;;0.50;;
52392;SDS011;38320;39.764;2.710;2024-02-28T10:22:57;1.08;;;0.40;;
52392;SDS011;38320;39.764;2.710;2024-02-28T10:25:23;0.38;;;0.28;;
52392;SDS011;38320;39.764;2.710;2024-02-28T10:27:49;2.53;;;0.55;;
52392;SDS011;38320;39.764;2.710;2024-02-28T10:30:14;0.30;;;0.30;;
52392;SDS011;38320;39.764;2.710;2024-02-28T10:32:51;1.80;;;0.47;;
52392;SDS011;38320;39.764;2.710;2024-02-28T10:35:17;1.27;;;0.70;;
52392;SDS011;38320;39.764;2.710;2024-02-28T10:37:50;1.67;;;0.82;;
52392;SDS011;38320;39.764;2.710;2024-02-28T10:40:16;1.55;;;0.80;;
52392;SDS011;38320;39.764;2.710;2024-02-28T10:42:42;1.45;;;0.50;;
52392;SDS011;38320;39.764;2.710;2024-02-28T10:45:11;3.40;;;0.75;;
52392;SDS011;38320;39.764;2.710;2024-02-28T10:47:38;0.40;;;0.40;;
52392;SDS011;38320;39.764;2.710;2024-02-28T10:50:04;0.65;;;0.65;;
52392;SDS011;38320;39.764;2.710;2024-02-28T10:52:32;1.70;;;0.50;;
52392;SDS011;38320;39.764;2.710;2024-02-28T10:54:59;0.77;;;0.60;;
52392;SDS011;38320;39.764;2.710;2024-02-28T10:57:27;0.90;;;0.70;;
52392;SDS011;38320;39.764;2.710;2024-02-28T10:59:54;2.30;;;0.70;;
52392;SDS011;38320;39.764;2.710;2024-02-28T11:02:21;1.25;;;0.70;;
52392;SDS011;38320;39.764;2.710;2024-02-28T11:04:51;0.50;;;0.50;;
52392;SDS011;38320;39.764;2.710;2024-02-28T11:07:20;2.85;;;0.93;;
52392;SDS011;38320;39.764;2.710;2024-02-28T11:09:53;1.33;;;0.57;;
52392;SDS011;38320;39.764;2.710;2024-02-28T11:12:26;1.00;;;0.60;;
52392;SDS011;38320;39.764;2.710;2024-02-28T11:14:57;0.95;;;0.63;;
52392;SDS011;38320;39.764;2.710;2024-02-28T11:17:32;2.05;;;0.70;;
52392;SDS011;38320;39.764;2.710;2024-02-28T11:19:58;2.78;;;0.73;;
52392;SDS011;38320;39.764;2.710;2024-02-28T11:22:27;1.13;;;0.70;;
52392;SDS011;38320;39.764;2.710;2024-02-28T11:24:54;1.55;;;0.57;;
52392;SDS011;38320;39.764;2.710;2024-02-28T11:27:20;0.65;;;0.47;;
52392;SDS011;38320;39.764;2.710;2024-02-28T11:29:46;1.27;;;0.43;;
52392;SDS011;38320;39.764;2.710;2024-02-28T11:32:14;0.90;;;0.65;;
52392;SDS011;38320;39.764;2.710;2024-02-28T11:34:41;2.05;;;0.60;;
52392;SDS011;38320;39.764;2.710;2024-02-28T11:37:06;2.85;;;0.52;;
52392;SDS011;38320;39.764;2.710;2024-02-28T11:39:34;1.38;;;0.68;;
52392;SDS011;38320;39.764;2.710;2024-02-28T11:42:12;0.95;;;0.52;;
52392;SDS011;38320;39.764;2.710;2024-02-28T11:44:39;1.33;;;0.50;;
52392;SDS011;38320;39.764;2.710;2024-02-28T11:47:05;1.65;;;0.70;;
52392;SDS011;38320;39.764;2.710;2024-02-28T11:49:34;0.95;;;0.50;;
52392;SDS011;38320;39.764;2.710;2024-02-28T11:51:59;2.30;;;0.50;;
52392;SDS011;38320;39.764;2.710;2024-02-28T11:54:25;1.08;;;0.63;;
52392;SDS011;38320;39.764;2.710;2024-02-28T11:56:50;1.08;;;0.40;;
52392;SDS011;38320;39.764;2.710;2024-02-28T11:59:16;3.35;;;0.68;;
52392;SDS011;38320;39.764;2.710;2024-02-28T12:01:42;3.30;;;0.50;;
52392;SDS011;38320;39.764;2.710;2024-02-28T12:04:11;1.60;;;0.70;;
52392;SDS011;38320;39.764;2.710;2024-02-28T12:06:38;4.38;;;0.82;;
52392;SDS011;38320;39.764;2.710;2024-02-28T12:09:04;2.55;;;0.80;;
52392;SDS011;38320;39.764;2.710;2024-02-28T12:11:36;3.38;;;0.80;;
52392;SDS011;38320;39.764;2.710;2024-02-28T12:14:06;1.50;;;0.60;;
52392;SDS011;38320;39.764;2.710;2024-02-28T12:16:34;2.75;;;0.70;;
52392;SDS011;38320;39.764;2.710;2024-02-28T12:19:03;2.08;;;0.85;;
52392;SDS011;38320;39.764;2.710;2024-02-28T12:21:29;1.85;;;0.60;;
52392;SDS011;38320;39.764;2.710;2024-02-28T12:23:56;1.63;;;0.70;;
52392;SDS011;38320;39.764;2.710;2024-02-28T12:26:21;3.63;;;0.82;;
52392;SDS011;38320;39.764;2.710;2024-02-28T12:28:47;3.75;;;0.70;;
52392;SDS011;38320;39.764;2.710;2024-02-28T12:31:12;1.85;;;0.65;;
52392;SDS011;38320;39.764;2.710;2024-02-28T12:33:38;2.30;;;1.35;;
52392;SDS011;38320;39.764;2.710;2024-02-28T12:36:05;1.23;;;0.70;;
52392;SDS011;38320;39.764;2.710;2024-02-28T12:38:30;1.63;;;0.60;;
52392;SDS011;38320;39.764;2.710;2024-02-28T12:40:56;1.95;;;0.40;;
52392;SDS011;38320;39.764;2.710;2024-02-28T12:43:22;2.47;;;0.70;;
52392;SDS011;38320;39.764;2.710;2024-02-28T12:45:48;1.33;;;0.73;;
52392;SDS011;38320;39.764;2.710;2024-02-28T12:48:13;1.00;;;0.63;;
52392;SDS011;38320;39.764;2.710;2024-02-28T12:50:39;2.00;;;0.60;;
52392;SDS011;38320;39.764;2.710;2024-02-28T12:53:05;2.58;;;0.73;;
52392;SDS011;38320;39.764;2.710;2024-02-28T12:55:30;2.30;;;0.80;;
52392;SDS011;38320;39.764;2.710;2024-02-28T12:57:56;3.33;;;0.80;;
52392;SDS011;38320;39.764;2.710;2024-02-28T13:00:22;2.05;;;0.80;;
52392;SDS011;38320;39.764;2.710;2024-02-28T13:02:47;2.25;;;1.00;;
52392;SDS011;38320;39.764;2.710;2024-02-28T13:05:13;2.75;;;1.13;;
52392;SDS011;38320;39.764;2.710;2024-02-28T13:07:38;3.65;;;1.45;;
52392;SDS011;38320;39.764;2.710;2024-02-28T13:10:05;4.20;;;1.15;;
52392;SDS011;38320;39.764;2.710;2024-02-28T13:12:31;4.13;;;1.10;;
52392;SDS011;38320;39.764;2.710;2024-02-28T13:14:57;2.42;;;1.52;;
52392;SDS011;38320;39.764;2.710;2024-02-28T13:17:24;1.27;;;1.17;;
52392;SDS011;38320;39.764;2.710;2024-02-28T13:19:49;2.35;;;0.88;;
52392;SDS011;38320;39.764;2.710;2024-02-28T13:22:15;3.65;;;0.98;;
52392;SDS011;38320;39.764;2.710;2024-02-28T13:24:41;6.78;;;1.33;;
52392;SDS011;38320;39.764;2.710;2024-02-28T13:27:06;5.25;;;1.63;;
52392;SDS011;38320;39.764;2.710;2024-02-28T13:29:32;1.33;;;1.15;;
52392;SDS011;38320;39.764;2.710;2024-02-28T13:31:58;3.53;;;1.25;;
52392;SDS011;38320;39.764;2.710;2024-02-28T13:34:23;1.73;;;0.90;;
52392;SDS011;38320;39.764;2.710;2024-02-28T13:36:49;3.63;;;1.00;;
52392;SDS011;38320;39.764;2.710;2024-02-28T13:39:15;2.20;;;0.90;;
52392;SDS011;38320;39.764;2.710;2024-02-28T13:41:41;1.88;;;1.02;;
52392;SDS011;38320;39.764;2.710;2024-02-28T13:44:07;2.50;;;1.20;;
52392;SDS011;38320;39.764;2.710;2024-02-28T13:46:34;3.95;;;1.45;;
52392;SDS011;38320;39.764;2.710;2024-02-28T13:49:00;3.50;;;1.08;;
52392;SDS011;38320;39.764;2.710;2024-02-28T13:51:26;6.20;;;1.00;;
52392;SDS011;38320;39.764;2.710;2024-02-28T13:53:52;1.98;;;1.38;;
52392;SDS011;38320;39.764;2.710;2024-02-28T13:56:19;4.30;;;1.35;;
52392;SDS011;38320;39.764;2.710;2024-02-28T13:58:44;5.93;;;1.30;;
52392;SDS011;38320;39.764;2.710;2024-02-28T14:01:10;4.07;;;1.40;;
52392;SDS011;38320;39.764;2.710;2024-02-28T14:03:35;5.00;;;1.60;;
52392;SDS011;38320;39.764;2.710;2024-02-28T14:06:02;5.38;;;1.80;;
52392;SDS011;38320;39.764;2.710;2024-02-28T14:08:27;5.25;;;1.98;;
52392;SDS011;38320;39.764;2.710;2024-02-28T14:10:53;4.03;;;1.90;;
52392;SDS011;38320;39.764;2.710;2024-02-28T14:13:19;3.78;;;1.77;;
52392;SDS011;38320;39.764;2.710;2024-02-28T14:15:44;4.40;;;2.20;;
52392;SDS011;38320;39.764;2.710;2024-02-28T14:18:15;3.72;;;1.92;;
52392;SDS011;38320;39.764;2.710;2024-02-28T14:20:42;5.50;;;1.95;;
52392;SDS011;38320;39.764;2.710;2024-02-28T14:23:08;3.15;;;1.85;;
52392;SDS011;38320;39.764;2.710;2024-02-28T14:25:34;5.13;;;1.73;;
52392;SDS011;38320;39.764;2.710;2024-02-28T14:27:59;4.05;;;2.30;;
52392;SDS011;38320;39.764;2.710;2024-02-28T14:30:24;2.47;;;1.85;;
52392;SDS011;38320;39.764;2.710;2024-02-28T14:32:50;5.00;;;2.13;;
52392;SDS011;38320;39.764;2.710;2024-02-28T14:35:15;2.80;;;1.58;;
52392;SDS011;38320;39.764;2.710;2024-02-28T14:37:41;4.72;;;1.70;;
52392;SDS011;38320;39.764;2.710;2024-02-28T14:40:08;3.13;;;1.70;;
52392;SDS011;38320;39.764;2.710;2024-02-28T14:42:38;1.67;;;1.50;;
52392;SDS011;38320;39.764;2.710;2024-02-28T14:45:05;3.95;;;1.77;;
52392;SDS011;38320;39.764;2.710;2024-02-28T14:47:32;3.55;;;1.67;;
52392;SDS011;38320;39.764;2.710;2024-02-28T14:49:57;3.75;;;1.92;;
52392;SDS011;38320;39.764;2.710;2024-02-28T14:52:23;5.90;;;1.92;;
52392;SDS011;38320;39.764;2.710;2024-02-28T14:54:49;2.85;;;1.90;;
52392;SDS011;38320;39.764;2.710;2024-02-28T14:57:15;2.70;;;1.65;;
52392;SDS011;38320;39.764;2.710;2024-02-28T14:59:41;3.58;;;1.48;;
52392;SDS011;38320;39.764;2.710;2024-02-28T15:02:07;3.45;;;1.45;;
52392;SDS011;38320;39.764;2.710;2024-02-28T15:04:36;1.88;;;1.40;;
